Time;durP1;ratioP1;P1;durP2;ratioP2;P2;SDS_P1;SDS_P2;PMS_P1;PMS_P2;Temp;Humidity;BMP_temperature;BMP_pressure;BME280_temperature;BME280_humidity;BME280_pressure;Samples;Min_cycle;Max_cycle;Signal;HPM_P1;HPM_P2
2021/08/04 00:01:49;;;;;;;10.23;4.60;;;;;;;14.21;75.01;100387.18;1618675;88;21057;-72
2021/08/04 00:04:15;;;;;;;6.22;4.53;;;;;;;14.20;75.04;100385.52;1619031;88;21237;-72
2021/08/04 00:06:41;;;;;;;7.78;4.92;;;;;;;14.19;75.06;100379.82;1618894;87;21906;-72
2021/08/04 00:09:07;;;;;;;7.08;4.87;;;;;;;14.19;75.10;100378.48;1619092;88;21017;-72
2021/08/04 00:11:33;;;;;;;6.80;4.80;;;;;;;14.18;75.15;100384.05;1619029;88;21001;-72
2021/08/04 00:14:00;;;;;;;9.58;5.12;;;;;;;14.19;75.18;100381.16;1619142;88;21065;-72
2021/08/04 00:16:26;;;;;;;7.10;4.97;;;;;;;14.20;75.20;100379.31;1619337;88;21137;-72
2021/08/04 00:18:52;;;;;;;10.43;4.92;;;;;;;14.22;75.24;100378.09;1619615;88;21034;-72
2021/08/04 00:21:18;;;;;;;9.58;4.85;;;;;;;14.25;75.25;100383.06;1619147;88;21487;-72
2021/08/04 00:23:44;;;;;;;10.60;5.47;;;;;;;14.19;75.40;100378.48;1619267;88;21081;-72
2021/08/04 00:26:10;;;;;;;6.78;4.47;;;;;;;14.19;75.40;100378.48;1618900;88;20989;-72
2021/08/04 00:28:36;;;;;;;8.43;4.83;;;;;;;14.20;75.38;100374.78;1619511;88;21907;-72
2021/08/04 00:31:02;;;;;;;8.83;5.70;;;;;;;14.23;75.42;100377.58;1619497;88;21372;-72
2021/08/04 00:33:28;;;;;;;9.70;5.95;;;;;;;14.25;75.48;100376.89;1619400;88;21065;-73
2021/08/04 00:35:54;;;;;;;8.23;5.10;;;;;;;14.26;75.49;100376.69;1619611;88;21049;-72
2021/08/04 00:38:20;;;;;;;7.92;5.30;;;;;;;14.24;75.52;100368.02;1619218;88;21001;-72
2021/08/04 00:40:46;;;;;;;8.58;5.60;;;;;;;14.20;75.54;100372.10;1619541;88;21578;-72
2021/08/04 00:43:13;;;;;;;7.85;5.22;;;;;;;14.18;75.60;100378.16;1619336;88;21029;-72
2021/08/04 00:45:39;;;;;;;10.18;4.87;;;;;;;14.16;75.68;100372.67;1619307;87;21081;-72
2021/08/04 00:48:05;;;;;;;8.63;4.92;;;;;;;14.11;75.75;100369.22;1619488;88;21061;-72
2021/08/04 00:50:32;;;;;;;8.83;5.92;;;;;;;14.00;75.77;100344.30;1619339;88;21038;-72
2021/08/04 00:52:58;;;;;;;6.35;4.87;;;;;;;14.10;75.84;100362.73;1619221;87;21138;-72
2021/08/04 00:55:25;;;;;;;7.35;5.30;;;;;;;14.13;75.89;100369.05;1619537;88;21069;-74
2021/08/04 00:57:51;;;;;;;12.07;5.10;;;;;;;14.14;75.93;100366.69;1620714;88;21053;-74
2021/08/04 01:00:17;;;;;;;11.70;6.85;;;;;;;14.15;75.98;100361.11;1621532;88;21046;-74
2021/08/04 01:02:53;;;;;;;8.83;5.37;;;;;;;14.16;76.01;100360.09;1621555;88;21048;-74
2021/08/04 01:05:25;;;;;;;6.85;4.97;;;;;;;14.10;76.07;100332.72;1616201;88;21090;-73
2021/08/04 01:08:05;;;;;;;9.08;5.05;;;;;;;14.10;76.07;100332.72;1621476;88;21006;-73
2021/08/04 01:10:34;;;;;;;5.00;3.95;;;;;;;14.21;76.09;100341.58;1622032;88;21098;-73
2021/08/04 01:13:33;;;;;;;9.78;4.90;;;;;;;14.21;76.13;100338.06;1621183;88;21029;-72
2021/08/04 01:16:18;;;;;;;11.48;5.70;;;;;;;14.19;76.17;100340.93;1621455;88;21817;-72
2021/08/04 01:18:56;;;;;;;5.87;4.87;;;;;;;14.22;76.22;100335.68;1593578;88;21181;-72
2021/08/04 01:21:55;;;;;;;7.40;6.08;;;;;;;14.23;76.26;100328.80;1615975;87;21013;-72
2021/08/04 01:24:28;;;;;;;10.75;6.40;;;;;;;14.26;76.29;100327.05;1621495;88;21541;-72
2021/08/04 01:26:54;;;;;;;6.53;5.05;;;;;;;14.29;76.30;100319.13;1621374;88;21006;-72
2021/08/04 01:29:24;;;;;;;7.03;5.35;;;;;;;14.30;76.33;100322.96;1621648;88;21065;-72
2021/08/04 01:31:50;;;;;;;5.78;4.83;;;;;;;14.30;76.34;100314.91;1596472;88;21121;-72
2021/08/04 01:34:18;;;;;;;7.62;5.35;;;;;;;14.31;76.37;100313.90;1621448;88;21057;-72
2021/08/04 01:36:44;;;;;;;8.75;5.35;;;;;;;14.30;76.38;100318.94;1616114;88;21066;-72
2021/08/04 01:39:10;;;;;;;9.93;6.70;;;;;;;14.31;76.44;100310.38;1621105;88;20990;-72
2021/08/04 01:41:36;;;;;;;9.30;6.03;;;;;;;14.29;76.44;100317.27;1621593;88;21058;-72
2021/08/04 01:44:05;;;;;;;10.50;6.22;;;;;;;14.28;76.48;100318.31;1621694;88;21451;-72
2021/08/04 01:46:31;;;;;;;8.10;5.17;;;;;;;14.25;76.52;100312.52;1621309;87;21040;-73
2021/08/04 01:48:58;;;;;;;9.28;4.85;;;;;;;14.19;76.52;100317.30;1621566;88;21021;-72
2021/08/04 01:51:25;;;;;;;5.83;5.20;;;;;;;14.12;76.54;100307.86;1621220;87;21029;-72
2021/08/04 01:53:51;;;;;;;6.10;5.00;;;;;;;14.09;76.62;100305.58;1621661;88;21604;-72
2021/08/04 01:56:17;;;;;;;8.35;4.95;;;;;;;14.09;76.63;100298.04;1621322;88;21915;-72
2021/08/04 01:58:44;;;;;;;8.03;5.17;;;;;;;14.07;76.68;100291.55;1619372;88;21045;-72
2021/08/04 02:01:10;;;;;;;8.65;5.20;;;;;;;14.10;76.71;100299.70;1619205;88;21001;-72
2021/08/04 02:03:37;;;;;;;7.33;5.30;;;;;;;14.13;76.74;100297.46;1619438;88;21050;-72
2021/08/04 02:06:27;;;;;;;9.70;5.60;;;;;;;14.15;76.74;100303.95;1619525;88;21018;-72
2021/08/04 02:08:57;;;;;;;;;;;;;;;14.16;76.75;100298.41;1621495;87;21848;-74
2021/08/04 02:11:44;;;;;;;9.70;5.33;;;;;;;14.19;76.79;100297.18;1619201;88;20138;-74
2021/08/04 02:14:21;;;;;;;9.28;4.95;;;;;;;14.20;76.78;100298.84;1619562;88;21061;-74
2021/08/04 02:17:07;;;;;;;7.25;5.10;;;;;;;14.17;76.76;100297.91;1619316;87;21014;-74
2021/08/04 02:19:57;;;;;;;6.87;4.85;;;;;;;14.13;76.77;100298.80;1619649;88;21093;-74
2021/08/04 02:22:34;;;;;;;8.00;5.50;;;;;;;14.11;76.81;100302.17;1619508;87;21145;-74
2021/08/04 02:25:12;;;;;;;9.53;5.67;;;;;;;14.09;76.82;100297.53;1619003;87;21030;-73
2021/08/04 02:27:38;;;;;;;10.08;6.08;;;;;;;14.12;76.83;100297.64;1617851;88;21006;-73
2021/08/04 02:30:06;;;;;;;7.45;5.53;;;;;;;14.14;76.85;100295.11;1619399;88;21005;-73
2021/08/04 02:32:32;;;;;;;27.42;6.62;;;;;;;14.17;76.89;100288.52;1619589;88;21025;-73
2021/08/04 02:34:59;;;;;;;9.18;5.97;;;;;;;14.17;76.85;100292.53;1619461;88;21163;-73
2021/08/04 02:37:25;;;;;;;9.63;5.55;;;;;;;14.15;76.87;100288.70;1619482;88;21093;-74
2021/08/04 02:39:51;;;;;;;6.28;5.12;;;;;;;14.13;76.92;100299.31;1619426;88;21017;-73
2021/08/04 02:42:18;;;;;;;7.55;5.42;;;;;;;14.07;77.07;100296.91;1619425;88;21044;-73
2021/08/04 02:44:44;;;;;;;7.20;5.05;;;;;;;14.07;77.07;100296.91;1619851;88;21565;-73
2021/08/04 02:47:10;;;;;;;10.70;5.40;;;;;;;14.04;77.03;100301.30;1619077;88;21156;-73
2021/08/04 02:49:36;;;;;;;7.37;6.12;;;;;;;14.00;77.07;100302.20;1619473;88;21033;-73
2021/08/04 02:52:03;;;;;;;8.15;5.15;;;;;;;13.97;77.11;100302.59;1619318;87;21478;-73
2021/08/04 02:54:29;;;;;;;7.20;5.53;;;;;;;13.95;77.14;100298.45;1619384;88;21058;-73
2021/08/04 02:56:55;;;;;;;7.15;5.62;;;;;;;13.93;77.20;100300.52;1619142;88;21062;-73
2021/08/04 02:59:21;;;;;;;9.18;6.10;;;;;;;13.94;77.25;100306.17;1625386;88;21514;-73
2021/08/04 03:01:47;;;;;;;10.23;6.10;;;;;;;13.93;77.29;100305.88;1625860;87;21554;-73
2021/08/04 03:04:13;;;;;;;8.15;5.75;;;;;;;13.94;77.35;100307.51;1597423;89;21042;-73
2021/08/04 03:06:39;;;;;;;10.18;5.67;;;;;;;13.93;77.39;100308.55;1625862;88;21001;-73
2021/08/04 03:09:05;;;;;;;7.60;6.22;;;;;;;13.93;77.46;100308.02;1625672;88;21046;-73
2021/08/04 03:11:31;;;;;;;8.00;6.33;;;;;;;13.95;77.51;100310.02;1597138;89;21798;-73
2021/08/04 03:13:57;;;;;;;8.03;5.85;;;;;;;13.97;77.55;100309.30;1625764;88;21093;-73
2021/08/04 03:16:23;;;;;;;8.28;6.22;;;;;;;13.99;77.58;100313.13;1625856;88;21033;-73
2021/08/04 03:18:50;;;;;;;7.58;5.83;;;;;;;13.97;77.66;100305.27;1625823;88;21050;-73
2021/08/04 03:21:16;;;;;;;9.75;6.25;;;;;;;13.98;77.69;100300.74;1625599;88;21053;-73
2021/08/04 03:23:42;;;;;;;8.33;6.05;;;;;;;13.99;77.73;100303.24;1625873;88;21574;-73
2021/08/04 03:26:08;;;;;;;8.20;5.62;;;;;;;14.01;77.77;100304.37;1625584;88;21033;-73
2021/08/04 03:28:34;;;;;;;9.35;6.20;;;;;;;14.04;77.82;100308.54;1625939;88;21013;-73
2021/08/04 03:31:00;;;;;;;6.20;5.47;;;;;;;14.07;77.85;100313.00;1625761;88;21054;-73
2021/08/04 03:33:26;;;;;;;8.85;5.70;;;;;;;14.07;77.89;100311.66;1625782;88;21111;-73
2021/08/04 03:35:52;;;;;;;7.12;5.12;;;;;;;14.05;77.91;100315.03;1625940;88;21175;-73
2021/08/04 03:38:18;;;;;;;10.00;4.90;;;;;;;14.09;77.97;100312.79;1625814;88;21491;-73
2021/08/04 03:40:44;;;;;;;9.30;5.70;;;;;;;14.08;78.01;100314.64;1625721;86;21017;-73
2021/08/04 03:43:10;;;;;;;8.60;6.12;;;;;;;14.11;78.04;100315.59;1625669;86;21069;-73
2021/08/04 03:45:36;;;;;;;9.10;6.25;;;;;;;14.14;78.08;100323.27;1625898;87;21084;-73
2021/08/04 03:48:02;;;;;;;10.03;5.50;;;;;;;14.15;78.08;100323.56;1625970;88;21084;-73
2021/08/04 03:50:28;;;;;;;7.33;4.97;;;;;;;14.16;78.12;100326.57;1625986;88;20989;-73
2021/08/04 03:52:54;;;;;;;7.47;5.05;;;;;;;14.19;78.14;100330.70;1625468;87;21029;-73
2021/08/04 03:55:21;;;;;;;7.03;5.53;;;;;;;14.21;78.17;100327.34;1625927;88;21490;-73
2021/08/04 03:57:47;;;;;;;10.40;5.70;;;;;;;14.22;78.21;100327.12;1623584;88;21019;-73
2021/08/04 04:00:14;;;;;;;7.90;5.87;;;;;;;14.25;78.20;100329.41;1613519;87;21231;-73
2021/08/04 04:02:40;;;;;;;9.10;5.72;;;;;;;14.27;78.23;100330.06;1613950;89;21026;-73
2021/08/04 04:05:08;;;;;;;8.20;5.78;;;;;;;14.29;78.23;100332.02;1613643;89;21070;-73
2021/08/04 04:07:35;;;;;;;9.90;5.10;;;;;;;14.32;78.26;100331.63;1613760;89;21013;-73
2021/08/04 04:10:01;;;;;;;9.63;5.92;;;;;;;14.33;78.25;100328.44;1613189;88;21081;-73
2021/08/04 04:12:28;;;;;;;8.95;5.97;;;;;;;14.33;78.25;100334.64;1613345;89;21165;-73
2021/08/04 04:14:54;;;;;;;7.67;6.12;;;;;;;14.34;78.25;100343.05;1613597;87;21550;-73
2021/08/04 04:17:20;;;;;;;9.98;5.80;;;;;;;14.33;78.27;100342.69;1613536;89;21038;-73
2021/08/04 04:19:46;;;;;;;10.03;5.92;;;;;;;14.34;78.27;100347.07;1613603;88;21014;-73
2021/08/04 04:22:12;;;;;;;8.38;5.40;;;;;;;14.34;78.29;100347.07;1613649;89;21331;-73
2021/08/04 04:24:38;;;;;;;7.33;5.75;;;;;;;14.35;78.32;100347.91;1613512;89;21152;-73
2021/08/04 04:27:05;;;;;;;7.97;5.45;;;;;;;14.35;78.33;100338.00;1613341;89;21070;-73
2021/08/04 04:29:31;;;;;;;8.28;5.90;;;;;;;14.36;78.34;100334.27;1613635;88;21109;-73
2021/08/04 04:31:57;;;;;;;7.10;5.12;;;;;;;14.38;78.36;100336.27;1613550;89;21014;-73
2021/08/04 04:34:23;;;;;;;8.23;5.35;;;;;;;14.42;78.39;100333.52;1613735;89;21071;-73
2021/08/04 04:36:49;;;;;;;9.88;6.50;;;;;;;14.49;78.36;100345.09;1613610;88;21164;-73
2021/08/04 04:39:15;;;;;;;8.98;5.90;;;;;;;14.56;78.35;100349.19;1613571;89;20986;-73
2021/08/04 04:41:41;;;;;;;12.20;6.17;;;;;;;14.60;78.37;100352.30;1613688;87;21569;-73
2021/08/04 04:44:07;;;;;;;8.98;6.00;;;;;;;14.65;78.34;100355.20;1613344;89;21054;-73
2021/08/04 04:46:33;;;;;;;10.53;5.80;;;;;;;14.69;78.34;100357.31;1613646;89;21558;-73
2021/08/04 04:48:59;;;;;;;6.45;4.75;;;;;;;14.70;78.36;100362.17;1613415;88;21819;-73
2021/08/04 04:51:25;;;;;;;9.73;5.47;;;;;;;14.70;78.35;100368.88;1613369;88;21026;-73
2021/08/04 04:53:51;;;;;;;7.50;5.42;;;;;;;14.70;78.35;100372.91;1613269;89;21506;-73
2021/08/04 04:56:18;;;;;;;7.10;5.12;;;;;;;14.69;78.34;100371.23;1613641;89;21054;-73
2021/08/04 04:58:44;;;;;;;7.85;5.85;;;;;;;14.77;78.35;100375.12;1616779;88;21021;-73
2021/08/04 05:01:10;;;;;;;12.30;6.53;;;;;;;14.70;78.33;100363.00;1621399;88;21164;-73
2021/08/04 05:03:36;;;;;;;10.18;5.40;;;;;;;14.70;78.33;100363.00;1621509;88;21033;-73
2021/08/04 05:06:02;;;;;;;10.00;5.50;;;;;;;14.85;78.36;100380.31;1621388;88;21026;-73
2021/08/04 05:08:28;;;;;;;9.95;5.50;;;;;;;14.79;78.46;100365.83;1621403;88;21027;-73
2021/08/04 05:10:54;;;;;;;11.83;5.40;;;;;;;14.79;78.46;100365.83;1621326;87;21077;-73
2021/08/04 05:13:20;;;;;;;9.40;5.33;;;;;;;14.93;78.27;100380.98;1621642;88;21325;-73
2021/08/04 05:15:46;;;;;;;8.18;4.85;;;;;;;14.98;78.25;100379.89;1621541;88;21073;-73
2021/08/04 05:18:12;;;;;;;11.55;4.75;;;;;;;15.00;78.22;100375.65;1621543;88;21135;-73
2021/08/04 05:20:38;;;;;;;8.55;4.97;;;;;;;15.08;78.29;100378.17;1621612;88;20994;-73
2021/08/04 05:23:04;;;;;;;6.28;4.08;;;;;;;15.08;78.29;100378.17;1621612;88;21025;-73
2021/08/04 05:25:30;;;;;;;12.78;4.87;;;;;;;15.10;78.12;100385.51;1621692;88;21216;-73
2021/08/04 05:27:56;;;;;;;7.90;4.80;;;;;;;15.11;78.04;100387.17;1621635;88;21514;-74
2021/08/04 05:30:22;;;;;;;10.38;4.40;;;;;;;15.12;77.89;100383.47;1621770;87;21049;-74
2021/08/04 05:32:48;;;;;;;14.87;4.42;;;;;;;15.11;78.04;100383.14;1621638;88;21010;-73
2021/08/04 05:35:15;;;;;;;7.67;4.12;;;;;;;15.13;77.95;100385.11;1621592;88;21041;-73
2021/08/04 05:37:41;;;;;;;7.83;3.92;;;;;;;15.21;77.93;100382.25;1621552;88;21161;-73
2021/08/04 05:40:08;;;;;;;6.25;3.87;;;;;;;15.26;77.89;100385.19;1621448;87;21002;-73
2021/08/04 05:42:34;;;;;;;8.15;3.77;;;;;;;15.27;77.83;100386.02;1621623;88;21022;-73
2021/08/04 05:45:00;;;;;;;7.15;3.50;;;;;;;15.37;77.79;100385.95;1621390;88;21026;-73
2021/08/04 05:47:26;;;;;;;15.70;4.78;;;;;;;15.48;77.72;100384.03;1621768;88;21009;-74
2021/08/04 05:49:52;;;;;;;4.92;3.92;;;;;;;15.60;77.65;100378.91;1621508;88;21691;-73
2021/08/04 05:52:18;;;;;;;6.62;3.55;;;;;;;15.76;77.59;100377.72;1621125;87;21038;-73
2021/08/04 05:54:44;;;;;;;5.33;4.22;;;;;;;15.91;77.51;100378.34;1621318;88;21021;-74
2021/08/04 05:57:10;;;;;;;7.25;4.00;;;;;;;16.08;77.42;100378.80;1621553;88;22003;-74
2021/08/04 05:59:36;;;;;;;8.60;3.58;;;;;;;16.25;77.33;100382.73;1621489;88;21510;-73
2021/08/04 06:02:03;;;;;;;5.20;3.77;;;;;;;16.39;77.21;100387.91;1619401;88;21505;-73
2021/08/04 06:04:29;;;;;;;5.00;3.60;;;;;;;16.59;77.03;100387.91;1619754;87;21047;-73
2021/08/04 06:06:55;;;;;;;4.87;3.58;;;;;;;16.81;76.86;100392.55;1603196;88;21040;-74
2021/08/04 06:09:21;;;;;;;6.83;3.75;;;;;;;16.96;76.72;100386.37;1619120;87;21103;-74
2021/08/04 06:11:47;;;;;;;5.50;3.35;;;;;;;17.22;76.60;100383.60;1618024;87;21112;-73
2021/08/04 06:14:13;;;;;;;4.12;3.08;;;;;;;17.33;76.31;100385.64;1600425;88;21190;-74
2021/08/04 06:16:39;;;;;;;4.58;3.25;;;;;;;17.45;76.14;100383.91;1600154;88;21038;-74
2021/08/04 06:19:05;;;;;;;3.62;2.67;;;;;;;17.67;75.92;100381.75;1593736;90;21095;-74
2021/08/04 06:21:31;;;;;;;4.92;3.60;;;;;;;17.79;75.55;100385.94;1593825;90;21077;-74
2021/08/04 06:23:57;;;;;;;4.92;2.75;;;;;;;18.03;75.38;100381.11;1593660;88;21060;-74
2021/08/04 06:26:23;;;;;;;5.10;2.45;;;;;;;18.50;75.04;100381.56;1651359;86;21764;-74
2021/08/04 06:28:49;;;;;;;3.67;2.70;;;;;;;18.67;74.64;100375.92;1612074;87;21557;-74
2021/08/04 06:31:15;;;;;;;6.17;2.50;;;;;;;18.67;74.32;100377.27;1607191;87;20997;-74
2021/08/04 06:33:41;;;;;;;2.65;2.05;;;;;;;18.87;74.10;100380.06;1618885;88;21018;-74
2021/08/04 06:36:07;;;;;;;4.85;2.45;;;;;;;19.08;73.67;100385.55;1618072;88;21014;-74
2021/08/04 06:38:33;;;;;;;4.30;2.40;;;;;;;19.17;73.27;100377.45;1613651;88;21177;-74
2021/08/04 06:41:00;;;;;;;4.62;1.70;;;;;;;19.51;72.93;100390.05;1616910;87;21058;-74
2021/08/04 06:43:26;;;;;;;5.80;2.12;;;;;;;19.84;72.47;100385.02;1617736;88;21099;-74
2021/08/04 06:45:52;;;;;;;2.40;2.05;;;;;;;20.03;71.92;100383.05;1618236;88;21035;-74
2021/08/04 06:48:18;;;;;;;4.87;2.08;;;;;;;20.00;71.48;100382.98;1619654;88;21001;-74
2021/08/04 06:50:44;;;;;;;3.10;2.08;;;;;;;20.06;71.10;100383.93;1617539;87;21716;-74
2021/08/04 06:53:10;;;;;;;2.45;1.75;;;;;;;20.06;70.64;100384.77;1605335;88;21018;-74
2021/08/04 06:55:36;;;;;;;3.22;1.77;;;;;;;20.20;70.25;100386.20;1608695;87;21114;-74
2021/08/04 06:58:03;;;;;;;5.10;1.50;;;;;;;20.51;69.77;100382.41;1613454;87;21066;-75
2021/08/04 07:00:29;;;;;;;3.10;1.60;;;;;;;20.61;69.23;100391.30;1604781;88;21155;-74
2021/08/04 07:02:55;;;;;;;3.00;1.80;;;;;;;20.69;68.74;100384.17;1608463;87;21497;-75
2021/08/04 07:05:21;;;;;;;2.12;1.92;;;;;;;20.63;68.15;100392.70;1605299;88;21528;-75
2021/08/04 07:07:47;;;;;;;2.42;2.08;;;;;;;20.59;67.78;100393.40;1618907;88;21013;-75
2021/08/04 07:10:13;;;;;;;4.08;1.90;;;;;;;20.42;67.31;100391.92;1604959;88;21364;-75
2021/08/04 07:12:39;;;;;;;3.15;1.42;;;;;;;20.23;66.87;100378.96;1610260;87;21097;-75
2021/08/04 07:15:07;;;;;;;2.50;1.60;;;;;;;20.14;66.63;100384.44;1621106;87;21254;-75
2021/08/04 07:17:47;;;;;;;2.77;1.80;;;;;;;20.15;66.29;100384.74;1613365;88;21030;-75
2021/08/04 07:20:14;;;;;;;;;;;;;;;20.17;66.04;100385.31;1623176;88;21057;-75
2021/08/04 07:22:40;;;;;;;2.42;1.85;;;;;;;20.15;65.73;100388.80;1632837;86;20172;-75
2021/08/04 07:25:07;;;;;;;4.80;1.80;;;;;;;20.24;65.54;100390.10;1630397;85;21102;-74
2021/08/04 07:27:33;;;;;;;4.15;1.80;;;;;;;20.23;65.24;100387.09;1643896;86;21857;-75
2021/08/04 07:29:59;;;;;;;4.35;1.82;;;;;;;20.09;65.10;100385.64;1637387;85;21097;-75
2021/08/04 07:32:25;;;;;;;3.52;2.17;;;;;;;19.90;64.91;100389.50;1612153;88;21072;-75
2021/08/04 07:34:51;;;;;;;6.53;2.27;;;;;;;19.85;64.91;100389.35;1595146;90;21055;-75
2021/08/04 07:37:17;;;;;;;9.10;2.37;;;;;;;19.82;64.79;100387.11;1594953;90;21040;-74
2021/08/04 07:39:43;;;;;;;11.28;3.27;;;;;;;19.73;64.68;100388.50;1600743;88;21202;-74
2021/08/04 07:42:09;;;;;;;9.75;2.85;;;;;;;19.80;64.58;100390.59;1595083;90;21012;-75
2021/08/04 07:44:35;;;;;;;2.65;1.87;;;;;;;19.73;64.46;100387.15;1602598;88;21680;-76
2021/08/04 07:47:01;;;;;;;4.20;2.10;;;;;;;19.80;64.38;100391.94;1619373;88;21061;-75
2021/08/04 07:49:28;;;;;;;14.10;4.25;;;;;;;19.86;64.28;100382.89;1618799;88;21510;-75
2021/08/04 07:51:54;;;;;;;115.22;24.27;;;;;;;19.90;64.16;100387.62;1641119;87;21259;-75
2021/08/04 07:54:20;;;;;;;52.45;9.40;;;;;;;19.98;64.10;100389.17;1650079;87;21078;-74
2021/08/04 07:56:46;;;;;;;13.48;3.72;;;;;;;20.03;64.00;100387.94;1613155;88;21099;-74
2021/08/04 07:59:12;;;;;;;15.80;3.95;;;;;;;20.05;63.87;100390.42;1649505;86;21054;-75
2021/08/04 08:01:38;;;;;;;15.58;3.90;;;;;;;19.99;63.85;100398.93;1598025;89;21143;-75
2021/08/04 08:04:04;;;;;;;6.67;2.50;;;;;;;20.00;63.84;100395.70;1652075;86;21157;-75
2021/08/04 08:06:30;;;;;;;4.47;2.75;;;;;;;20.13;63.79;100400.38;1646625;85;21390;-75
2021/08/04 08:08:56;;;;;;;2.55;2.25;;;;;;;20.18;63.72;100403.23;1650646;86;21095;-75
2021/08/04 08:11:22;;;;;;;4.22;2.52;;;;;;;20.16;63.64;100397.20;1650349;86;21040;-75
2021/08/04 08:13:48;;;;;;;10.15;2.72;;;;;;;20.17;63.59;100401.57;1650529;86;21056;-75
2021/08/04 08:16:15;;;;;;;3.47;2.25;;;;;;;20.32;63.55;100406.05;1650417;86;21082;-75
2021/08/04 08:18:41;;;;;;;4.83;2.33;;;;;;;20.46;63.46;100407.18;1653666;86;21052;-75
2021/08/04 08:21:07;;;;;;;3.83;2.30;;;;;;;20.58;63.40;100409.38;1653610;86;21046;-75
2021/08/04 08:23:33;;;;;;;4.60;2.67;;;;;;;20.69;63.35;100412.63;1599160;89;21067;-75
2021/08/04 08:25:59;;;;;;;4.05;2.42;;;;;;;20.61;63.13;100402.13;1653852;86;21109;-75
2021/08/04 08:28:25;;;;;;;2.37;2.17;;;;;;;20.56;63.09;100402.00;1634708;85;22201;-75
2021/08/04 08:30:51;;;;;;;5.12;2.60;;;;;;;20.70;62.97;100402.89;1649304;86;21058;-75
2021/08/04 08:33:17;;;;;;;3.83;2.27;;;;;;;20.84;62.83;100402.12;1643253;86;21672;-75
2021/08/04 08:35:43;;;;;;;9.65;6.03;;;;;;;21.06;62.67;100397.74;1653283;86;21053;-75
2021/08/04 08:38:09;;;;;;;7.03;3.15;;;;;;;21.21;62.54;100406.25;1641722;86;21055;-75
2021/08/04 08:40:35;;;;;;;7.87;2.75;;;;;;;21.34;62.39;100403.26;1650235;86;21542;-75
2021/08/04 08:43:01;;;;;;;4.33;3.08;;;;;;;21.51;62.26;100400.60;1643423;86;21106;-75
2021/08/04 08:45:27;;;;;;;3.90;2.87;;;;;;;21.66;62.08;100400.91;1627373;86;21044;-75
2021/08/04 08:47:54;;;;;;;10.03;3.35;;;;;;;21.78;61.88;100394.05;1627535;86;21081;-75
2021/08/04 08:50:25;;;;;;;5.62;3.10;;;;;;;21.95;61.72;100399.05;1605969;88;21571;-75
2021/08/04 08:52:48;;;;;;;4.72;2.87;;;;;;;22.19;61.42;100395.12;1643451;85;21775;-75
2021/08/04 08:55:15;;;;;;;6.30;3.42;;;;;;;22.23;61.21;100396.28;1649625;86;20962;-75
2021/08/04 08:57:42;;;;;;;3.40;3.00;;;;;;;22.19;60.90;100397.01;1650456;85;20934;-75
2021/08/04 09:00:09;;;;;;;4.90;2.72;;;;;;;22.02;60.70;100390.20;1651432;85;21534;-75
2021/08/04 09:02:36;;;;;;;5.10;2.90;;;;;;;21.92;60.49;100392.71;1642854;87;21061;-76
2021/08/04 09:05:08;;;;;;;3.67;2.98;;;;;;;22.10;60.39;100388.42;1606114;88;22471;-75
2021/08/04 09:07:39;;;;;;;7.05;3.20;;;;;;;22.21;60.16;100382.63;1603033;87;21498;-75
2021/08/04 09:10:31;;;;;;;3.15;2.65;;;;;;;22.36;59.96;100382.36;1619252;87;21068;-75
2021/08/04 09:13:00;;;;;;;4.65;3.12;;;;;;;22.38;59.80;100380.20;1614551;88;21445;-75
2021/08/04 09:15:33;;;;;;;5.65;3.33;;;;;;;22.50;59.50;100373.86;1619459;87;21486;-75
2021/08/04 09:18:08;;;;;;;7.22;2.83;;;;;;;22.59;59.29;100373.74;1617096;87;21575;-76
2021/08/04 09:20:53;;;;;;;5.83;3.33;;;;;;;22.66;59.06;100373.83;1595913;88;21039;-76
2021/08/04 09:23:27;;;;;;;10.43;4.70;;;;;;;22.79;58.85;100376.25;1593541;87;21077;-76
2021/08/04 09:26:14;;;;;;;6.72;3.17;;;;;;;23.02;58.73;100373.00;1592778;90;21095;-76
2021/08/04 09:29:04;;;;;;;5.92;2.52;;;;;;;23.15;58.37;100376.17;1647904;85;21520;-76
2021/08/04 09:31:46;;;;;;;;;;;;;;;23.29;58.15;100377.44;1607908;88;22446;-76
2021/08/04 09:34:37;;;;;;;2.65;2.08;;;;;;;23.30;57.65;100370.09;1650411;86;20163;-76
2021/08/04 09:37:08;;;;;;;3.33;1.98;;;;;;;23.34;57.30;100373.42;1616478;88;21017;-76
2021/08/04 09:39:37;;;;;;;2.25;2.05;;;;;;;23.16;56.74;100373.73;1622110;87;21002;-76
2021/08/04 09:42:03;;;;;;;3.27;2.72;;;;;;;22.98;56.47;100369.96;1618656;87;21058;-76
2021/08/04 09:44:29;;;;;;;5.92;2.60;;;;;;;22.83;56.29;100373.86;1595531;87;21797;-76
2021/08/04 09:47:12;;;;;;;4.78;2.58;;;;;;;22.74;56.19;100367.18;1618748;87;21078;-76
2021/08/04 09:49:40;;;;;;;4.62;2.47;;;;;;;22.79;56.00;100361.83;1613660;87;21021;-76
2021/08/04 09:52:11;;;;;;;5.12;2.30;;;;;;;22.75;55.74;100361.50;1613707;88;20997;-75
2021/08/04 09:54:41;;;;;;;4.78;2.85;;;;;;;22.74;55.63;100364.46;1592151;90;21043;-76
2021/08/04 09:57:07;;;;;;;6.22;3.05;;;;;;;22.67;55.47;100359.20;1641184;86;21787;-76
2021/08/04 09:59:33;;;;;;;7.03;3.10;;;;;;;22.59;55.34;100364.23;1624095;88;21349;-76
2021/08/04 10:02:00;;;;;;;5.65;2.52;;;;;;;22.47;55.33;100359.41;1653474;85;21512;-76
2021/08/04 10:04:26;;;;;;;5.42;2.60;;;;;;;22.56;55.35;100362.81;1648748;86;21387;-76
2021/08/04 10:07:06;;;;;;;7.67;3.20;;;;;;;22.65;55.20;100355.06;1601133;89;21042;-76
2021/08/04 10:09:32;;;;;;;7.83;3.15;;;;;;;22.74;55.18;100350.86;1648370;86;21713;-75
2021/08/04 10:11:58;;;;;;;4.08;2.83;;;;;;;22.83;55.07;100354.81;1654020;86;21029;-75
2021/08/04 10:14:24;;;;;;;5.95;3.35;;;;;;;22.95;55.07;100355.51;1653152;86;21010;-75
2021/08/04 10:16:51;;;;;;;7.17;3.02;;;;;;;23.03;54.98;100352.36;1649951;86;21067;-75
2021/08/04 10:19:18;;;;;;;8.45;3.30;;;;;;;22.94;54.77;100353.06;1652738;85;21501;-76
2021/08/04 10:21:49;;;;;;;4.78;3.40;;;;;;;22.82;54.69;100355.88;1654206;85;21762;-76
2021/08/04 10:24:15;;;;;;;35.17;4.67;;;;;;;22.63;54.66;100357.20;1652057;86;21502;-76
2021/08/04 10:26:42;;;;;;;4.87;3.22;;;;;;;22.50;54.67;100356.19;1649905;86;21578;-76
2021/08/04 10:29:09;;;;;;;3.30;3.00;;;;;;;22.41;54.65;100349.80;1654080;86;21048;-75
2021/08/04 10:31:36;;;;;;;11.28;3.60;;;;;;;22.37;54.62;100351.41;1647292;85;21139;-76
2021/08/04 10:34:03;;;;;;;7.45;3.40;;;;;;;22.32;54.62;100353.20;1623043;88;21827;-76
2021/08/04 10:36:33;;;;;;;5.08;3.12;;;;;;;22.27;54.58;100353.13;1651854;86;20986;-76
2021/08/04 10:39:10;;;;;;;21.60;4.35;;;;;;;22.27;54.55;100347.14;1622813;87;21102;-75
2021/08/04 10:41:36;;;;;;;7.45;3.75;;;;;;;22.31;54.60;100347.47;1635892;85;21109;-76
2021/08/04 10:44:07;;;;;;;7.60;3.55;;;;;;;22.50;54.63;100352.11;1634060;86;21521;-76
2021/08/04 10:46:36;;;;;;;6.47;3.33;;;;;;;22.72;54.41;100348.41;1604650;88;21681;-76
2021/08/04 10:52:03;;;;;;;10.98;3.83;;;;;;;23.44;54.19;100341.98;1874317;75;23283;-76
2021/08/04 10:54:30;;;;;;;12.05;3.70;;;;;;;23.67;53.98;100341.70;1841008;77;21068;-76
2021/08/04 10:57:05;;;;;;;8.00;3.40;;;;;;;23.63;53.63;100341.39;1834203;77;22469;-76
2021/08/04 10:59:33;;;;;;;3.77;2.60;;;;;;;23.68;53.52;100339.27;1853560;77;20895;-77
2021/08/04 11:02:07;;;;;;;3.50;2.83;;;;;;;23.91;53.26;100337.56;1853280;77;21465;-76
2021/08/04 11:04:42;;;;;;;2.98;2.00;;;;;;;23.79;52.97;100335.53;1830483;77;21375;-76
2021/08/04 11:07:20;;;;;;;3.12;1.92;;;;;;;23.80;52.62;100326.29;1850175;77;20990;-77
2021/08/04 11:09:56;;;;;;;5.83;2.20;;;;;;;23.77;52.29;100332.26;1838147;77;21721;-77
2021/08/04 11:12:40;;;;;;;6.65;1.50;;;;;;;23.43;51.79;100327.56;1844999;77;20891;-77
2021/08/04 11:15:21;;;;;;;2.30;1.60;;;;;;;23.39;51.66;100327.22;1845118;77;21498;-76
2021/08/04 11:18:08;;;;;;;2.10;1.70;;;;;;;23.48;51.31;100328.14;1828937;77;21041;-77
2021/08/04 11:20:37;;;;;;;4.45;1.87;;;;;;;23.52;51.08;100327.38;1839089;75;21014;-77
2021/08/04 11:23:05;;;;;;;5.83;2.00;;;;;;;23.82;50.70;100316.77;1841156;77;21812;-76
2021/08/04 11:25:42;;;;;;;4.15;2.08;;;;;;;23.75;50.28;100322.97;1838189;77;21002;-76
2021/08/04 11:28:13;;;;;;;2.65;1.98;;;;;;;23.77;50.23;100320.00;1862250;77;21013;-76
2021/08/04 11:30:47;;;;;;;3.83;2.08;;;;;;;23.82;50.08;100322.22;1862478;77;21490;-76
2021/08/04 11:33:26;;;;;;;4.03;2.25;;;;;;;23.63;49.88;100324.22;1829323;77;21510;-76